Time;durP1;ratioP1;P1;durP2;ratioP2;P2;SDS_P1;SDS_P2;PMS_P1;PMS_P2;Temp;Humidity;BMP_temperature;BMP_pressure;BME280_temperature;BME280_humidity;BME280_pressure;Samples;Min_cycle;Max_cycle;Signal;HPM_P1;HPM_P2
2022/01/22 00:01:49;;;;;;;6.90;4.60;;;;;;;-4.76;61.02;95531.28;4969218;28;20528;-68
2022/01/22 00:04:40;;;;;;;10.43;5.05;;;;;;;-4.78;61.75;95532.94;4987924;28;20077;-69
2022/01/22 00:07:30;;;;;;;5.35;3.15;;;;;;;-4.74;61.16;95527.91;4937617;28;20049;-69
2022/01/22 00:10:22;;;;;;;8.45;4.05;;;;;;;-4.77;61.91;95527.06;4985450;28;20448;-66
2022/01/22 00:15:51;;;;;;;7.10;4.68;;;;;;;-4.81;61.93;95527.03;4988921;28;19925;-69
2022/01/22 00:18:18;;;;;;;7.90;4.65;;;;;;;-4.86;62.37;95523.66;4987285;28;20084;-71
2022/01/22 00:20:44;;;;;;;5.68;3.00;;;;;;;-4.85;61.13;95502.72;4999401;28;20429;-68
2022/01/22 00:23:11;;;;;;;6.93;3.25;;;;;;;-4.52;60.63;95526.34;5006865;28;20133;-69
2022/01/22 00:25:37;;;;;;;7.50;3.60;;;;;;;-4.53;60.82;95531.38;5012382;28;20409;-64
2022/01/22 00:28:04;;;;;;;4.13;2.95;;;;;;;-4.43;60.84;95528.03;5016482;28;20113;-65
2022/01/22 00:30:36;;;;;;;6.45;4.18;;;;;;;-4.57;60.69;95499.50;5005851;28;20030;-70
2022/01/22 00:33:01;;;;;;;7.28;5.15;;;;;;;-4.54;61.15;95509.53;5008502;28;20124;-68
2022/01/22 00:35:37;;;;;;;9.20;5.78;;;;;;;-4.76;60.97;95480.94;5025565;28;20120;-69
2022/01/22 00:38:12;;;;;;;6.45;3.83;;;;;;;-4.48;60.06;95520.47;5027156;28;20393;-66
2022/01/22 00:40:57;;;;;;;10.90;5.25;;;;;;;-4.58;61.29;95516.25;5009148;28;20057;-65
2022/01/22 00:43:53;;;;;;;7.75;4.60;;;;;;;-4.65;61.47;95517.91;5030521;28;20026;-71
2022/01/22 00:46:26;;;;;;;6.78;4.18;;;;;;;-4.59;60.65;95532.19;5028196;28;20516;-68
2022/01/22 00:49:19;;;;;;;10.65;5.97;;;;;;;-4.64;61.50;95529.66;5026011;28;20073;-64
2022/01/22 00:51:58;;;;;;;7.28;4.07;;;;;;;-4.79;60.45;95506.94;4986074;28;20122;-72
2022/01/22 00:54:42;;;;;;;8.15;3.55;;;;;;;-4.75;60.50;95521.22;5031079;28;20061;-67
2022/01/22 00:57:13;;;;;;;9.60;5.03;;;;;;;-4.70;60.70;95527.09;5028840;28;20064;-66
2022/01/22 00:59:57;;;;;;;8.17;5.77;;;;;;;-4.64;61.10;95528.78;5030443;28;20033;-64
2022/01/22 01:02:48;;;;;;;5.70;3.13;;;;;;;-4.64;60.42;95526.28;5029028;28;20924;-65
2022/01/22 01:05:28;;;;;;;8.48;4.93;;;;;;;-4.73;61.39;95521.22;5030259;28;20032;-66
2022/01/22 01:08:17;;;;;;;6.47;3.20;;;;;;;-4.87;60.30;95509.44;5030889;28;20029;-63
2022/01/22 01:10:51;;;;;;;6.75;3.08;;;;;;;-5.12;60.58;95470.72;4980975;28;20044;-65
2022/01/22 01:13:41;;;;;;;6.22;3.40;;;;;;;-5.64;60.16;95383.34;5029924;28;20040;-66
2022/01/22 01:33:18;;;;;;;4.20;2.22;;;;;;;-4.67;59.15;95491.91;5008488;28;20076;-64
2022/01/22 01:35:56;;;;;;;5.80;3.63;;;;;;;-4.73;59.68;95480.97;5005070;28;20501;-65
2022/01/22 01:38:26;;;;;;;11.32;4.28;;;;;;;-4.63;59.87;95482.66;4991465;28;20038;-64
2022/01/22 01:41:06;;;;;;;7.95;2.42;;;;;;;-4.72;58.95;95470.03;5008057;28;20069;-64
2022/01/22 01:43:43;;;;;;;4.88;3.13;;;;;;;-4.62;59.14;95485.19;5007152;28;20033;-66
2022/01/22 01:46:16;;;;;;;7.05;3.42;;;;;;;-4.58;59.96;95487.72;5007807;28;20116;-64
2022/01/22 01:49:02;;;;;;;6.53;3.17;;;;;;;-4.54;59.52;95490.25;4974259;28;20084;-66
2022/01/22 01:51:34;;;;;;;4.55;3.55;;;;;;;-4.54;59.37;95484.38;5005972;28;20092;-65
2022/01/22 01:54:11;;;;;;;3.95;2.63;;;;;;;-4.64;59.65;95474.28;5007474;28;20050;-69
2022/01/22 02:00:00;;;;;;;8.75;3.10;;;;;;;-4.64;59.23;95456.69;5029394;28;20184;-67
2022/01/22 02:02:46;;;;;;;5.50;3.60;;;;;;;-4.55;59.31;95463.41;5009724;28;20029;-67
2022/01/22 02:05:49;;;;;;;5.13;2.80;;;;;;;-4.47;58.39;95476.84;5022122;28;20037;-64
2022/01/22 02:08:29;;;;;;;;;;;;;;;-4.45;57.73;95489.44;5029976;28;20145;-64
2022/01/22 02:11:07;;;;;;;4.13;2.08;;;;;;;-4.46;59.08;95476.03;5029580;28;19916;-69
2022/01/22 02:26:02;;;;;;;5.90;3.20;;;;;;;-4.13;56.50;95469.38;5028924;28;20044;-66
2022/01/22 02:28:49;;;;;;;6.55;3.47;;;;;;;-4.13;57.45;95460.94;5028514;28;20253;-67
2022/01/22 02:34:30;;;;;;;5.93;2.95;;;;;;;-4.12;56.43;95468.50;5029553;28;20060;-65
2022/01/22 02:37:34;;;;;;;;;;;;;;;;;;;;;
2022/01/22 02:40:10;;;;;;;3.42;2.10;;;;;;;-4.58;57.09;95430.66;5029280;28;20037;-64
2022/01/22 02:42:38;;;;;;;3.95;2.90;;;;;;;-4.54;56.84;95457.53;5028949;28;20030;-64
2022/01/22 02:45:34;;;;;;;;;;;;;;;;;;;;;
2022/01/22 02:48:12;;;;;;;10.18;3.38;;;;;;;-4.91;57.57;95433.94;4977294;28;20080;-68
2022/01/22 02:50:59;;;;;;;4.00;3.15;;;;;;;-4.80;57.99;95458.28;5028791;28;20033;-65
2022/01/22 02:53:27;;;;;;;7.65;3.47;;;;;;;-5.06;57.52;95432.22;5028879;28;20496;-67
2022/01/22 02:56:04;;;;;;;9.75;3.72;;;;;;;-4.88;57.62;95467.47;5027715;28;20041;-65
2022/01/22 02:59:00;;;;;;;7.63;3.47;;;;;;;-4.85;57.80;95461.63;5028514;28;20444;-67
2022/01/22 03:01:53;;;;;;;5.05;2.83;;;;;;;-4.83;57.89;95459.97;5009576;28;20037;-64
2022/01/22 03:05:01;;;;;;;;;;;;;;;;;;;;;
2022/01/22 03:07:56;;;;;;;5.82;2.85;;;;;;;-5.06;58.42;95440.59;5028092;28;20043;-64
2022/01/22 03:10:49;;;;;;;5.50;2.85;;;;;;;-4.97;57.85;95449.84;5009290;28;20048;-66
2022/01/22 03:28:53;;;;;;;4.45;2.38;;;;;;;-5.76;58.59;95318.75;5028967;28;20064;-64
2022/01/22 03:31:40;;;;;;;4.55;2.78;;;;;;;-5.42;58.66;95380.94;5027485;28;20108;-64
2022/01/22 03:34:19;;;;;;;5.18;3.15;;;;;;;-5.20;58.48;95410.34;5028089;28;20041;-65
2022/01/22 03:36:45;;;;;;;5.28;3.25;;;;;;;-5.36;58.22;95389.34;5025357;28;20045;-65
2022/01/22 03:39:42;;;;;;;;;;;;;;;;;;;;;
2022/01/22 03:42:42;;;;;;;4.15;2.13;;;;;;;-5.23;58.48;95396.91;5027914;28;20063;-64
2022/01/22 03:45:27;;;;;;;2.50;2.22;;;;;;;-5.18;58.85;95403.66;4976494;28;20038;-65
2022/01/22 03:48:12;;;;;;;4.22;2.65;;;;;;;-5.19;57.70;95404.47;4991930;28;20047;-64
2022/01/22 03:51:05;;;;;;;4.78;2.92;;;;;;;-5.12;58.27;95400.31;5008703;28;20049;-65
2022/01/22 03:53:42;;;;;;;4.00;2.30;;;;;;;-5.06;57.79;95395.31;4992357;28;20048;-65
2022/01/22 03:56:33;;;;;;;4.10;2.40;;;;;;;-5.06;57.70;95390.28;5027734;28;20057;-64
2022/01/22 03:59:22;;;;;;;2.85;1.80;;;;;;;-5.18;58.02;95360.09;5027544;28;20037;-67
2022/01/22 04:03:08;;;;;;;6.80;2.70;;;;;;;-4.90;57.52;95388.66;5021032;28;20037;-64
2022/01/22 04:05:09;;;;;;;3.83;2.28;;;;;;;-5.04;57.08;95381.06;5024634;28;20052;-64
2022/01/22 04:10:32;;;;;;;4.00;2.33;;;;;;;-4.76;56.40;95398.75;5028250;28;20507;-64
2022/01/22 04:13:32;;;;;;;4.15;2.95;;;;;;;-4.77;56.93;95398.75;5027212;28;20061;-67
2022/01/22 04:16:00;;;;;;;4.78;2.60;;;;;;;-4.87;56.78;95405.44;5031266;28;20076;-66
2022/01/22 04:25:23;;;;;;;4.07;2.70;;;;;;;-5.03;57.17;95402.03;5030983;28;20163;-65
2022/01/22 04:27:57;;;;;;;8.43;2.88;;;;;;;-5.06;56.80;95385.25;4965088;28;20484;-68
2022/01/22 04:30:45;;;;;;;5.32;3.10;;;;;;;-4.95;57.03;95379.41;5031688;28;20025;-66
2022/01/22 04:33:16;;;;;;;7.43;3.75;;;;;;;-5.03;56.77;95362.63;5030877;28;20064;-65
2022/01/22 04:35:54;;;;;;;7.50;3.05;;;;;;;-4.94;56.77;95355.94;5031431;28;20398;-66
2022/01/22 04:38:52;;;;;;;4.35;2.25;;;;;;;-4.69;56.93;95385.38;5027470;28;20098;-64
2022/01/22 04:41:57;;;;;;;7.50;3.08;;;;;;;-4.68;57.20;95374.44;5028752;28;20148;-67
2022/01/22 04:44:57;;;;;;;7.93;3.00;;;;;;;-4.91;56.56;95326.59;5031279;28;20041;-66
2022/01/22 04:57:06;;;;;;;6.85;2.90;;;;;;;-4.36;57.43;95376.19;5011810;28;20041;-65
2022/01/22 05:00:00;;;;;;;8.15;3.72;;;;;;;-4.52;57.58;95354.34;4992527;28;20049;-65
2022/01/22 05:02:45;;;;;;;4.90;3.58;;;;;;;-4.54;59.20;95378.66;5011009;28;20036;-63
2022/01/22 05:05:46;;;;;;;;;;;;;;;;;;;;;
2022/01/22 05:08:31;;;;;;;;;;;;;;;-4.50;59.05;95370.28;4934899;29;20403;-64
2022/01/22 05:11:12;;;;;;;5.97;3.42;;;;;;;-4.42;59.49;95366.09;4947249;29;19914;-65
2022/01/22 05:13:37;;;;;;;7.37;3.57;;;;;;;-4.52;59.06;95331.69;4933620;29;20058;-64
2022/01/22 05:16:20;;;;;;;7.55;3.58;;;;;;;-4.38;58.79;95345.09;4950559;29;20043;-61
2022/01/22 05:19:10;;;;;;;4.95;3.17;;;;;;;-4.31;57.80;95351.84;4950154;29;20027;-65
2022/01/22 05:21:55;;;;;;;;;;;;;;;;;;;;;
2022/01/22 05:24:50;;;;;;;5.50;3.42;;;;;;;-4.34;59.13;95356.03;4950111;29;20047;-70
2022/01/22 05:36:56;;;;;;;7.10;4.20;;;;;;;-4.46;58.47;95347.63;4989067;28;20088;-66
2022/01/22 05:39:21;;;;;;;7.88;4.03;;;;;;;-4.65;59.13;95358.53;5011164;28;20310;-63
2022/01/22 05:41:53;;;;;;;7.38;4.13;;;;;;;-4.75;59.82;95346.78;5008183;28;20040;-66
2022/01/22 05:44:44;;;;;;;6.80;3.25;;;;;;;-4.78;59.12;95347.59;5009722;28;20056;-66
2022/01/22 05:47:34;;;;;;;5.40;3.53;;;;;;;-4.86;58.81;95329.97;5009275;28;20485;-64
2022/01/22 05:50:04;;;;;;;7.72;3.67;;;;;;;-4.76;60.22;95357.66;5007188;28;20053;-70
2022/01/22 05:53:17;;;;;;;8.52;5.13;;;;;;;-4.64;61.06;95366.06;5009794;28;20088;-66
2022/01/22 06:02:10;;;;;;;5.53;3.33;;;;;;;-4.55;60.22;95361.88;5009976;28;20048;-68
2022/01/22 06:05:00;;;;;;;6.18;2.75;;;;;;;-4.65;60.89;95340.91;5008878;28;20285;-64
2022/01/22 06:07:59;;;;;;;;;;;;;;;;;;;;;
2022/01/22 06:10:56;;;;;;;7.90;4.20;;;;;;;-4.39;61.31;95348.47;5010667;28;20036;-66
2022/01/22 06:16:50;;;;;;;5.03;2.85;;;;;;;-4.36;61.98;95358.53;5010493;28;20084;-66
2022/01/22 06:19:31;;;;;;;;;;;;;;;-4.39;62.58;95351.00;4962638;28;20049;-64
2022/01/22 06:22:14;;;;;;;7.22;2.85;;;;;;;-4.41;61.57;95352.69;5009210;28;19992;-65
2022/01/22 06:25:00;;;;;;;5.00;3.75;;;;;;;-4.45;60.87;95349.28;5009494;28;20045;-65
2022/01/22 06:28:01;;;;;;;7.35;3.45;;;;;;;-4.76;61.45;95300.63;5011679;28;20045;-68
2022/01/22 06:30:47;;;;;;;;;;;;;;;;;;;;;
2022/01/22 06:33:13;;;;;;;6.30;3.65;;;;;;;-4.75;61.02;95331.66;4974923;28;20030;-70
2022/01/22 06:36:01;;;;;;;5.75;3.65;;;;;;;-4.68;61.10;95343.41;5008661;28;20066;-68
2022/01/22 06:38:41;;;;;;;8.18;3.40;;;;;;;-4.67;60.38;95332.53;5008874;28;20017;-64
2022/01/22 06:44:19;;;;;;;4.70;3.20;;;;;;;-4.57;60.35;95334.19;5009870;28;20088;-65
2022/01/22 06:46:52;;;;;;;8.32;3.92;;;;;;;-4.45;59.61;95331.66;4944346;28;20050;-64
2022/01/22 06:49:38;;;;;;;;;;;;;;;;;;;;;
2022/01/22 06:52:08;;;;;;;5.65;3.28;;;;;;;-4.55;58.68;95306.50;4974763;28;20038;-65
2022/01/22 06:55:27;;;;;;;;;;;;;;;;;;;;;
2022/01/22 06:58:31;;;;;;;;;;;;;;;;;;;;;
2022/01/22 07:01:18;;;;;;;5.40;2.67;;;;;;;-4.32;58.05;95271.25;4098110;27;28568476;-64
2022/01/22 07:04:13;;;;;;;8.70;4.50;;;;;;;-4.24;58.39;95302.31;5069654;28;20140;-64
2022/01/22 07:06:49;;;;;;;10.55;6.05;;;;;;;-4.13;58.06;95325.81;5046393;28;20063;-65
2022/01/22 07:09:44;;;;;;;7.03;4.38;;;;;;;-4.17;57.92;95319.06;5065625;28;20024;-65
2022/01/22 07:13:01;;;;;;;10.07;4.40;;;;;;;-4.00;57.42;95326.63;5045914;28;20036;-67
2022/01/22 07:16:23;;;;;;;5.45;3.90;;;;;;;-3.96;57.49;95323.25;5065202;28;20064;-67
2022/01/22 07:19:19;;;;;;;10.00;5.05;;;;;;;-3.96;57.12;95290.50;5030954;28;20040;-65
2022/01/22 07:22:19;;;;;;;;;;;;;;;;;;;;;
2022/01/22 07:25:13;;;;;;;;;;;;;;;;;;;;;
2022/01/22 07:27:59;;;;;;;7.07;4.05;;;;;;;-3.59;57.27;95325.69;5046005;28;20039;-65
2022/01/22 07:30:48;;;;;;;;;;;;;;;;;;;;;
2022/01/22 07:33:34;;;;;;;4.95;3.35;;;;;;;-3.14;56.94;95311.19;5029558;28;20071;-70
2022/01/22 07:36:26;;;;;;;6.32;3.55;;;;;;;-2.91;56.41;95312.75;5045267;28;20037;-66
2022/01/22 07:39:02;;;;;;;6.78;3.20;;;;;;;-3.19;55.74;95218.75;5064223;28;20044;-62
2022/01/22 07:41:50;;;;;;;5.72;3.00;;;;;;;-2.31;54.27;95298.84;5061386;28;20075;-65
2022/01/22 07:44:24;;;;;;;5.95;2.97;;;;;;;-2.11;53.76;95281.00;5064400;28;20118;-64
2022/01/22 07:47:00;;;;;;;4.43;2.53;;;;;;;-2.33;54.83;95295.50;5061910;28;20041;-64
2022/01/22 07:49:31;;;;;;;4.43;3.08;;;;;;;-2.43;54.52;95285.50;5044942;28;20132;-64
2022/01/22 07:52:31;;;;;;;;;;;;;;;;;;;;;
2022/01/22 07:55:07;;;;;;;6.93;3.47;;;;;;;-1.92;53.56;95279.13;5064140;28;20406;-64
2022/01/22 07:58:06;;;;;;;4.72;3.17;;;;;;;-1.41;52.73;95297.13;5063873;28;20041;-65
2022/01/22 08:01:03;;;;;;;4.78;3.20;;;;;;;-1.55;51.93;95287.16;5078388;28;20158;-69
2022/01/22 08:04:01;;;;;;;5.95;3.92;;;;;;;-1.62;52.09;95298.19;5048037;28;20044;-67
2022/01/22 08:06:51;;;;;;;7.60;3.60;;;;;;;-1.99;51.54;95275.00;5083448;28;20855;-64
2022/01/22 08:09:20;;;;;;;9.75;4.28;;;;;;;-1.95;52.17;95281.69;5079113;28;20444;-65
2022/01/22 08:12:28;;;;;;;;;;;;;;;;;;;;;
2022/01/22 08:15:07;;;;;;;6.40;3.92;;;;;;;-2.45;52.84;95264.44;5001683;28;20054;-65
2022/01/22 08:18:10;;;;;;;;;;;;;;;;;;;;;
2022/01/22 08:21:01;;;;;;;7.22;3.85;;;;;;;-2.89;54.09;95273.19;5002299;28;20468;-65
2022/01/22 08:23:27;;;;;;;7.25;4.45;;;;;;;-2.71;54.92;95276.44;5040666;28;20040;-66
2022/01/22 08:25:59;;;;;;;6.88;3.38;;;;;;;-2.07;53.43;95275.06;5066770;28;20044;-71
2022/01/22 08:28:59;;;;;;;4.70;2.78;;;;;;;-1.59;50.87;95269.50;5088242;28;20062;-66
2022/01/22 08:38:00;;;;;;;7.88;4.30;;;;;;;5.29;36.08;95217.47;5093716;28;20406;-66
2022/01/22 08:41:00;;;;;;;9.05;3.03;;;;;;;5.57;33.26;95249.63;5087537;28;20600;-64
2022/01/22 08:47:39;;;;;;;5.53;3.20;;;;;;;6.44;31.91;95206.78;5093632;28;20093;-66
2022/01/22 08:50:31;;;;;;;6.35;3.47;;;;;;;5.99;31.28;95236.84;5074301;28;20109;-66
2022/01/22 08:53:01;;;;;;;7.75;3.30;;;;;;;6.15;32.05;95218.28;5038206;28;20035;-66
2022/01/22 08:55:29;;;;;;;5.95;3.70;;;;;;;5.91;32.83;95220.13;5085306;28;20020;-64
2022/01/22 08:58:08;;;;;;;7.68;2.83;;;;;;;6.12;31.58;95234.63;5060951;28;20059;-70
2022/01/22 09:00:43;;;;;;;7.85;3.30;;;;;;;6.37;31.58;95226.72;5064812;28;20066;-66
2022/01/22 09:03:18;;;;;;;5.50;3.15;;;;;;;8.05;32.40;95228.38;5060508;28;20430;-62
2022/01/22 09:05:52;;;;;;;5.85;2.92;;;;;;;7.27;29.81;95233.81;5065886;28;20059;-67
2022/01/22 09:08:49;;;;;;;6.15;2.78;;;;;;;6.80;30.74;95200.91;5062369;28;20048;-67
2022/01/22 09:11:19;;;;;;;7.40;3.85;;;;;;;6.89;31.37;95230.47;5064434;28;20465;-66
2022/01/22 09:13:50;;;;;;;5.72;3.05;;;;;;;9.08;28.33;95224.84;5059425;28;20107;-65
2022/01/22 09:16:16;;;;;;;4.43;3.38;;;;;;;8.25;28.21;95212.00;5049313;28;20118;-67
2022/01/22 09:18:48;;;;;;;4.63;2.90;;;;;;;8.95;27.34;95216.97;5050185;28;20468;-69
2022/01/22 09:21:17;;;;;;;4.95;3.35;;;;;;;10.59;25.25;95212.03;5049023;28;20033;-68
2022/01/22 09:23:46;;;;;;;5.97;2.63;;;;;;;9.68;25.45;95188.94;5034743;28;20124;-67
2022/01/22 09:26:15;;;;;;;5.75;3.40;;;;;;;8.29;28.06;95227.16;5063309;28;20238;-67
2022/01/22 09:28:42;;;;;;;5.90;4.30;;;;;;;10.10;25.77;95189.97;5054909;28;20069;-66
2022/01/22 09:31:11;;;;;;;4.18;3.03;;;;;;;10.24;25.54;95203.78;5061708;28;20047;-67
2022/01/22 09:33:40;;;;;;;5.53;3.97;;;;;;;11.12;24.61;95162.41;5057070;28;20098;-69
2022/01/22 09:36:06;;;;;;;7.00;3.92;;;;;;;11.15;23.95;95181.09;5056414;28;20049;-67
2022/01/22 09:38:36;;;;;;;8.07;3.95;;;;;;;11.37;23.07;95197.81;5056821;28;20043;-66
2022/01/22 09:41:03;;;;;;;6.43;4.10;;;;;;;9.11;25.57;95192.06;5055903;28;20071;-66
2022/01/22 09:43:29;;;;;;;8.20;4.75;;;;;;;11.30;23.15;95196.56;5052633;28;20090;-67
2022/01/22 09:45:57;;;;;;;6.00;3.22;;;;;;;10.06;23.85;95180.75;5049041;28;20470;-67
2022/01/22 09:48:26;;;;;;;6.55;4.38;;;;;;;9.01;24.65;95140.28;5048392;28;20472;-67
2022/01/22 09:50:53;;;;;;;6.07;3.78;;;;;;;10.79;23.11;95117.13;5050259;28;20044;-66
2022/01/22 09:53:25;;;;;;;7.15;4.53;;;;;;;11.01;23.60;95163.06;5048958;28;20099;-67
2022/01/22 09:55:51;;;;;;;8.85;4.70;;;;;;;10.01;24.17;95157.00;5049300;28;20116;-67
2022/01/22 09:58:20;;;;;;;6.65;3.85;;;;;;;9.54;24.13;95157.97;5050096;28;20108;-68
2022/01/22 10:01:37;;;;;;;6.25;3.85;;;;;;;8.74;24.84;95158.06;5059855;28;20056;-66
2022/01/22 10:04:07;;;;;;;8.20;5.10;;;;;;;10.22;24.63;95115.44;4951913;28;20053;-65
2022/01/22 10:06:58;;;;;;;8.95;5.10;;;;;;;12.91;21.54;95119.56;4949283;28;20165;-67
2022/01/22 10:09:46;;;;;;;10.73;6.03;;;;;;;12.45;21.04;95116.66;4962084;28;20038;-67
2022/01/22 10:12:17;;;;;;;7.13;4.38;;;;;;;10.34;23.75;95149.97;4957932;28;20477;-67
2022/01/22 10:15:09;;;;;;;6.97;3.90;;;;;;;11.02;22.51;95151.84;4950411;28;20062;-67
2022/01/22 10:17:51;;;;;;;6.30;3.90;;;;;;;12.71;21.66;95123.53;4962795;28;20234;-67
2022/01/22 10:20:31;;;;;;;9.38;5.65;;;;;;;12.93;21.46;95121.09;4953484;28;20628;-68
2022/01/22 10:23:23;;;;;;;10.23;5.55;;;;;;;13.59;19.93;95139.72;4958931;28;20047;-66
2022/01/22 10:25:55;;;;;;;8.43;4.35;;;;;;;9.87;24.51;95139.78;4950664;28;20035;-67
2022/01/22 10:28:34;;;;;;;6.15;3.67;;;;;;;10.13;25.29;95139.97;4958618;28;20039;-68
2022/01/22 10:31:10;;;;;;;6.15;3.80;;;;;;;8.39;27.15;95139.31;4958972;28;20050;-68
2022/01/22 10:33:37;;;;;;;6.72;4.07;;;;;;;11.33;24.00;95126.63;4949803;28;20102;-68
2022/01/22 10:36:15;;;;;;;6.43;4.32;;;;;;;12.54;21.41;95122.94;4932635;28;20043;-69
2022/01/22 10:38:44;;;;;;;5.82;3.45;;;;;;;13.19;19.15;95108.88;4975804;28;20034;-68
2022/01/22 10:41:50;;;;;;;4.78;3.08;;;;;;;10.30;23.25;95114.03;4990195;28;20037;-67
2022/01/22 10:44:23;;;;;;;8.93;3.53;;;;;;;9.55;24.71;95121.03;5013060;28;20025;-66
2022/01/22 10:47:29;;;;;;;6.70;4.60;;;;;;;9.14;24.73;95112.16;5009416;28;20101;-67
2022/01/22 10:50:34;;;;;;;6.45;3.70;;;;;;;9.60;24.28;95113.06;4998295;28;20088;-66
2022/01/22 10:53:43;;;;;;;7.55;3.95;;;;;;;8.95;23.97;95099.50;4985619;28;20106;-65
2022/01/22 10:56:31;;;;;;;6.55;4.00;;;;;;;8.49;24.96;95103.72;5066544;28;20033;-65
2022/01/22 10:59:06;;;;;;;7.03;4.15;;;;;;;3.95;31.36;95127.91;5056598;28;20430;-66
2022/01/22 11:02:04;;;;;;;4.65;2.80;;;;;;;2.35;34.41;95149.13;5022895;28;20129;-65
2022/01/22 11:04:43;;;;;;;3.67;2.70;;;;;;;4.40;30.84;95132.25;5024785;28;20068;-68
2022/01/22 11:07:19;;;;;;;5.40;3.30;;;;;;;4.17;30.60;95116.03;5024155;28;20034;-64
2022/01/22 11:09:47;;;;;;;6.63;3.13;;;;;;;7.48;26.69;95102.88;5024598;28;21037;-64
2022/01/22 11:12:14;;;;;;;4.80;2.90;;;;;;;8.49;24.84;95062.59;5023356;28;20029;-66
2022/01/22 11:14:47;;;;;;;6.18;3.40;;;;;;;10.69;22.96;95083.38;5026720;28;20041;-66
2022/01/22 11:17:25;;;;;;;5.15;3.03;;;;;;;8.83;23.56;95087.31;5033667;28;20048;-64
2022/01/22 11:20:03;;;;;;;5.20;3.45;;;;;;;8.80;25.21;95083.16;5027261;28;20130;-68
2022/01/22 11:22:41;;;;;;;4.47;2.90;;;;;;;5.79;28.71;95099.47;5033080;28;20041;-70
2022/01/22 11:25:16;;;;;;;5.25;3.42;;;;;;;4.65;31.16;95103.22;5026437;28;20044;-67
2022/01/22 11:27:47;;;;;;;7.35;4.22;;;;;;;3.76;33.02;95097.13;5025944;28;20130;-66
2022/01/22 11:30:28;;;;;;;;;;;;;;;;;;;;;
2022/01/22 11:33:05;;;;;;;4.35;3.17;;;;;;;1.50;37.45;95105.66;5024830;28;20048;-68
2022/01/22 11:36:09;;;;;;;5.22;2.90;;;;;;;1.30;38.17;95106.19;5027191;28;20091;-70
2022/01/22 11:38:46;;;;;;;4.82;2.78;;;;;;;1.38;38.56;95111.06;5002109;28;20118;-70
2022/01/22 11:41:22;;;;;;;5.43;3.67;;;;;;;0.95;39.44;95069.78;4996855;28;20046;-67
2022/01/22 11:44:17;;;;;;;5.82;4.00;;;;;;;0.69;40.56;95095.81;4993251;28;20065;-66
2022/01/22 11:46:58;;;;;;;7.55;3.47;;;;;;;0.45;41.64;95099.75;5003313;28;20760;-67
2022/01/22 11:49:42;;;;;;;7.72;4.43;;;;;;;0.39;41.83;95070.25;5005009;28;20121;-65
2022/01/22 11:52:22;;;;;;;8.10;4.50;;;;;;;0.91;41.46;95104.56;5005295;28;20077;-64
2022/01/22 11:55:09;;;;;;;7.97;3.88;;;;;;;0.71;42.14;95114.38;5002739;28;20501;-64
2022/01/22 11:57:40;;;;;;;6.15;4.10;;;;;;;0.78;42.67;95108.28;5005124;28;20229;-66
2022/01/22 12:00:34;;;;;;;8.38;3.72;;;;;;;0.82;43.09;95087.03;4988047;28;20046;-69
2022/01/22 12:03:08;;;;;;;5.00;3.30;;;;;;;0.76;43.53;95099.88;5000238;28;20509;-66
2022/01/22 12:05:59;;;;;;;7.05;3.72;;;;;;;0.81;44.51;95092.16;5003070;28;20116;-64
2022/01/22 12:09:25;;;;;;;;;;;;;;;;;;;;;
2022/01/22 12:14:55;;;;;;;6.47;4.32;;;;;;;0.27;46.57;95095.91;5027104;28;20048;-67
2022/01/22 12:17:51;;;;;;;10.82;4.55;;;;;;;0.06;48.08;95090.41;5046372;28;20458;-67
2022/01/22 12:23:45;;;;;;;9.25;4.63;;;;;;;0.16;49.87;95096.97;5005159;28;20794;-67
2022/01/22 12:26:36;;;;;;;11.02;4.90;;;;;;;-0.03;50.69;95067.78;5007166;28;20386;-64
2022/01/22 12:30:06;;;;;;;11.48;4.55;;;;;;;0.22;51.26;95098.53;5007737;28;20037;-66
2022/01/22 12:33:22;;;;;;;;;;;;;;;;;;;;;
2022/01/22 12:36:27;;;;;;;8.63;6.18;;;;;;;0.13;54.11;95089.44;4948487;29;20039;-67
2022/01/22 12:39:28;;;;;;;9.10;5.35;;;;;;;0.35;53.16;95086.41;4948297;29;20043;-68
2022/01/22 12:42:45;;;;;;;10.05;5.78;;;;;;;0.60;51.60;95085.88;4936115;29;20120;-66
2022/01/22 12:45:26;;;;;;;7.43;4.15;;;;;;;0.70;50.15;95083.06;4949271;29;20038;-67
2022/01/22 12:48:10;;;;;;;7.85;4.25;;;;;;;0.46;49.25;95015.13;4949367;29;20079;-65
2022/01/22 12:51:24;;;;;;;;;;;;;;;;;;;;;
2022/01/22 12:53:56;;;;;;;7.35;5.00;;;;;;;3.98;40.60;95062.28;4867996;29;20331;-65
2022/01/22 12:57:03;;;;;;;7.20;3.90;;;;;;;3.96;39.46;95056.41;4951677;28;20074;-69
2022/01/22 13:00:12;;;;;;;5.68;3.78;;;;;;;2.38;42.54;95053.16;4949926;28;20724;-71
2022/01/22 13:02:42;;;;;;;6.72;3.90;;;;;;;1.09;45.68;95057.56;4968322;28;20078;-66
2022/01/22 13:05:51;;;;;;;;;;;;;;;;;;;;;
2022/01/22 13:08:45;;;;;;;6.72;3.85;;;;;;;0.41;46.56;95033.00;4994341;28;20048;-66
2022/01/22 13:11:44;;;;;;;;;;;;;;;;;;;;;
2022/01/22 13:14:43;;;;;;;6.50;3.60;;;;;;;0.15;48.30;95029.34;5029597;28;20033;-66
2022/01/22 13:17:52;;;;;;;;;;;;;;;;;;;;;
2022/01/22 13:20:52;;;;;;;;;;;;;;;;;;;;;
2022/01/22 13:23:37;;;;;;;10.15;4.78;;;;;;;0.22;48.45;94999.63;5010578;28;20041;-64
2022/01/22 13:27:00;;;;;;;7.15;3.65;;;;;;;0.42;47.52;95031.31;5028987;28;20118;-71
2022/01/22 13:29:42;;;;;;;7.50;4.50;;;;;;;0.34;47.72;95017.09;5026842;28;20057;-67
2022/01/22 13:33:03;;;;;;;7.80;4.25;;;;;;;-0.08;48.85;95021.41;5029354;28;20527;-65
2022/01/22 13:36:14;;;;;;;13.10;4.50;;;;;;;-0.26;48.99;95023.47;5028458;28;20041;-65
2022/01/22 13:49:14;;;;;;;;;;;;;;;;;;;;;
2022/01/22 13:52:27;;;;;;;;;;;;;;;;;;;;;
2022/01/22 13:55:26;;;;;;;7.30;3.90;;;;;;;-0.27;48.74;95014.19;4957286;28;20045;-69
2022/01/22 13:57:55;;;;;;;7.38;4.38;;;;;;;-0.24;49.47;95014.13;4977761;28;20752;-67
2022/01/22 14:00:43;;;;;;;5.57;3.80;;;;;;;-0.37;48.23;94985.69;5004499;28;20106;-65
2022/01/22 14:03:45;;;;;;;7.93;5.35;;;;;;;-0.03;47.72;95024.69;5006278;28;20100;-65
2022/01/22 14:06:22;;;;;;;;;;;;;;;-0.01;47.47;95025.50;5006575;28;20041;-64
2022/01/22 14:09:43;;;;;;;;;;;;;;;;;;;;;
2022/01/22 14:12:46;;;;;;;;;;;;;;;;;;;;;
2022/01/22 14:16:02;;;;;;;9.63;3.95;;;;;;;-0.52;49.48;95024.00;5011040;28;20043;-66
2022/01/22 14:19:05;;;;;;;6.03;4.28;;;;;;;-0.57;49.99;95016.50;5025945;28;20040;-70
2022/01/22 14:25:12;;;;;;;5.40;3.50;;;;;;;-0.58;49.29;94983.59;5028267;28;20040;-71
2022/01/22 14:28:18;;;;;;;;;;;;;;;;;;;;;
2022/01/22 14:31:23;;;;;;;6.43;4.15;;;;;;;-0.83;51.13;94995.91;5028165;28;20044;-66
2022/01/22 14:34:10;;;;;;;7.28;4.43;;;;;;;-0.77;50.48;95031.22;5028123;28;20068;-64
2022/01/22 14:37:09;;;;;;;8.38;4.88;;;;;;;-0.83;51.75;95013.63;5025059;28;20138;-64
2022/01/22 14:46:25;;;;;;;;;;;;;;;;;;;;;
2022/01/22 14:49:25;;;;;;;;;;;;;;;;;;;;;
2022/01/22 14:52:23;;;;;;;6.93;4.80;;;;;;;-1.20;52.53;95026.94;5009238;28;20034;-66
2022/01/22 14:55:08;;;;;;;13.40;6.53;;;;;;;-1.53;52.33;95012.28;5025494;28;20116;-70
2022/01/22 14:57:58;;;;;;;11.77;6.20;;;;;;;-1.62;54.58;95026.75;5025506;28;20048;-66
2022/01/22 15:00:41;;;;;;;10.57;4.60;;;;;;;-1.67;55.34;95025.16;4979345;28;20137;-64
2022/01/22 15:03:42;;;;;;;7.78;4.13;;;;;;;-1.71;56.80;95041.22;5028919;28;20468;-65
2022/01/22 15:06:44;;;;;;;;;;;;;;;;;;;;;
2022/01/22 15:09:22;;;;;;;12.10;5.80;;;;;;;-2.26;58.94;94984.72;5044018;28;20029;-64
2022/01/22 15:12:25;;;;;;;8.45;6.05;;;;;;;-1.97;60.04;95050.88;5047368;28;20043;-65
2022/01/22 15:15:34;;;;;;;;;;;;;;;;;;;;;
2022/01/22 15:21:33;;;;;;;;;;;;;;;;;;;;;
2022/01/22 15:24:26;;;;;;;9.73;5.03;;;;;;;-2.27;61.01;95052.97;5051722;28;20029;-68
2022/01/22 15:26:58;;;;;;;10.88;4.90;;;;;;;-2.29;61.18;95069.81;5003924;28;20799;-66
2022/01/22 15:29:28;;;;;;;10.13;6.38;;;;;;;-2.42;61.93;95054.81;4989599;28;20080;-63
2022/01/22 15:33:05;;;;;;;8.57;4.72;;;;;;;-2.35;62.05;95080.81;4990087;28;20054;-64
2022/01/22 15:35:40;;;;;;;;;;;;;;;;;;;;;
2022/01/22 15:38:31;;;;;;;7.85;4.85;;;;;;;-2.60;63.08;95067.66;4989771;28;20034;-68
2022/01/22 15:41:22;;;;;;;9.93;5.72;;;;;;;-2.77;64.14;95045.97;4989121;28;20038;-64
2022/01/22 15:44:24;;;;;;;8.63;4.15;;;;;;;-2.64;64.37;95068.53;4989538;28;20042;-64
2022/01/22 15:46:57;;;;;;;;;;;;;;;-2.62;64.36;95087.03;4989988;28;20194;-66
2022/01/22 15:49:30;;;;;;;5.60;3.53;;;;;;;-2.78;64.57;95061.13;4988979;28;19967;-65
2022/01/22 15:52:30;;;;;;;13.05;7.47;;;;;;;-2.74;64.76;95070.31;5031586;28;20045;-67
2022/01/22 15:55:26;;;;;;;8.07;5.38;;;;;;;-2.64;64.48;95096.28;5051148;28;20031;-66
2022/01/22 15:57:56;;;;;;;13.00;7.15;;;;;;;-2.90;64.58;95061.22;5066992;28;20552;-67
2022/01/22 16:00:50;;;;;;;10.27;5.47;;;;;;;-2.61;64.10;95088.69;5069445;28;20078;-66
2022/01/22 16:03:45;;;;;;;16.48;5.85;;;;;;;-2.77;63.27;95072.91;5049948;28;20052;-69
2022/01/22 16:06:39;;;;;;;8.82;5.30;;;;;;;-2.51;63.24;95107.09;5030831;28;20037;-65
2022/01/22 16:09:28;;;;;;;12.48;5.53;;;;;;;-2.52;63.27;95116.38;5048681;28;20048;-64
2022/01/22 16:12:42;;;;;;;;;;;;;;;;;;;;;